Pagina principale
METAR-TAF:

METAR-TAF

Aeroporti :

Aeroporto di Foggia

Foggia, Italia

latitudine: 41-25-58N, longitudine: 015-32-06E, altezza: 81 m

Osservazione

Il bollettino è stato emesso 9 minuti fa, alle 16:08 UTC
Vento 5 kt da ovest/sud-ovest, variando fra sud-ovest e nord-ovest
Temperature 25°C
Umidità 79%
Pressione 1015 hPa
Visibilità: 9000 m
Poco nuvoloso ad un'altezza di 2500 ft, Cumulonembo.
Nubi sparse ad un'altezza di 3500 ft
temporale, pioggia debole

METAR: LIBF 181608Z 25005KT 230V320 9000 -TSRA FEW025CB SCT035 25/21 Q1015

Ora: 18:17 (16:17 UTC)


TAF: mancante

Osservazioni e previsioni meteorologiche di più di 4000 aeroporti (messaggi METAR e TAF).

Le stazioni disponibili sono rappresentate dai dischi gialli e rossi sulla carta.

Puntare il mouse per vedere il nome della stazione.

Clicca sopra per visualizzare le osservazioni e previsioni meteorologiche.

Per cambiare la mappa : fare clic sui pulsanti verdi con una croce nera per ingrandire, il pulsante verde con un trattino per diminuire, o sulla freccia verde per le mappe adiacenti.


METAR-TAF: